sensor_id;sensor_type;location;lat;lon;timestamp;P1;durP1;ratioP1;P2;durP2;ratioP2
21233;SDS011;10774;42.178;26.578;2023-09-19T00:00:45;6.50;;;4.18;;
21233;SDS011;10774;42.178;26.578;2023-09-19T00:03:12;5.63;;;4.22;;
21233;SDS011;10774;42.178;26.578;2023-09-19T00:05:37;4.82;;;3.95;;
21233;SDS011;10774;42.178;26.578;2023-09-19T00:08:03;7.07;;;4.10;;
21233;SDS011;10774;42.178;26.578;2023-09-19T00:10:30;6.20;;;3.75;;
21233;SDS011;10774;42.178;26.578;2023-09-19T00:13:00;7.03;;;3.97;;
21233;SDS011;10774;42.178;26.578;2023-09-19T00:15:30;6.63;;;3.92;;
21233;SDS011;10774;42.178;26.578;2023-09-19T00:18:00;6.22;;;3.83;;
21233;SDS011;10774;42.178;26.578;2023-09-19T00:20:25;7.82;;;4.18;;
21233;SDS011;10774;42.178;26.578;2023-09-19T00:22:51;5.93;;;4.10;;
21233;SDS011;10774;42.178;26.578;2023-09-19T00:25:18;4.85;;;3.75;;
21233;SDS011;10774;42.178;26.578;2023-09-19T00:27:47;6.22;;;3.88;;
21233;SDS011;10774;42.178;26.578;2023-09-19T00:30:15;5.45;;;4.50;;
21233;SDS011;10774;42.178;26.578;2023-09-19T00:32:44;7.35;;;3.50;;
21233;SDS011;10774;42.178;26.578;2023-09-19T00:35:12;5.55;;;4.40;;
21233;SDS011;10774;42.178;26.578;2023-09-19T00:37:39;5.93;;;4.43;;
21233;SDS011;10774;42.178;26.578;2023-09-19T00:40:05;5.40;;;4.57;;
21233;SDS011;10774;42.178;26.578;2023-09-19T00:42:40;8.10;;;4.88;;
21233;SDS011;10774;42.178;26.578;2023-09-19T00:45:06;6.07;;;5.07;;
21233;SDS011;10774;42.178;26.578;2023-09-19T00:47:35;6.40;;;4.50;;
21233;SDS011;10774;42.178;26.578;2023-09-19T00:50:01;5.30;;;4.00;;
21233;SDS011;10774;42.178;26.578;2023-09-19T00:52:29;7.07;;;4.65;;
21233;SDS011;10774;42.178;26.578;2023-09-19T00:54:57;6.30;;;4.57;;
21233;SDS011;10774;42.178;26.578;2023-09-19T00:57:25;5.97;;;4.18;;
21233;SDS011;10774;42.178;26.578;2023-09-19T00:59:50;6.90;;;3.80;;
21233;SDS011;10774;42.178;26.578;2023-09-19T01:02:19;5.65;;;3.97;;
21233;SDS011;10774;42.178;26.578;2023-09-19T01:04:46;6.05;;;3.78;;
21233;SDS011;10774;42.178;26.578;2023-09-19T01:07:11;5.55;;;3.83;;
21233;SDS011;10774;42.178;26.578;2023-09-19T01:09:39;4.00;;;3.42;;
21233;SDS011;10774;42.178;26.578;2023-09-19T01:12:05;6.47;;;3.83;;
21233;SDS011;10774;42.178;26.578;2023-09-19T01:36:22;4.93;;;4.25;;
21233;SDS011;10774;42.178;26.578;2023-09-19T01:38:49;6.80;;;4.05;;
21233;SDS011;10774;42.178;26.578;2023-09-19T01:41:17;8.82;;;4.57;;
21233;SDS011;10774;42.178;26.578;2023-09-19T01:43:50;6.90;;;4.05;;
21233;SDS011;10774;42.178;26.578;2023-09-19T01:46:19;6.85;;;4.03;;
21233;SDS011;10774;42.178;26.578;2023-09-19T01:52:27;6.50;;;4.60;;
21233;SDS011;10774;42.178;26.578;2023-09-19T01:54:51;8.25;;;4.68;;
21233;SDS011;10774;42.178;26.578;2023-09-19T01:57:29;8.13;;;4.70;;
21233;SDS011;10774;42.178;26.578;2023-09-19T02:00:04;5.32;;;4.30;;
21233;SDS011;10774;42.178;26.578;2023-09-19T02:02:38;6.35;;;4.22;;
21233;SDS011;10774;42.178;26.578;2023-09-19T02:05:05;7.40;;;4.78;;
21233;SDS011;10774;42.178;26.578;2023-09-19T02:07:31;7.43;;;4.53;;
21233;SDS011;10774;42.178;26.578;2023-09-19T02:10:00;5.50;;;4.88;;
21233;SDS011;10774;42.178;26.578;2023-09-19T02:12:26;7.50;;;4.40;;
21233;SDS011;10774;42.178;26.578;2023-09-19T02:14:52;5.55;;;4.10;;
21233;SDS011;10774;42.178;26.578;2023-09-19T02:17:17;6.80;;;4.10;;
21233;SDS011;10774;42.178;26.578;2023-09-19T02:19:44;6.13;;;3.97;;
21233;SDS011;10774;42.178;26.578;2023-09-19T02:22:09;6.82;;;4.60;;
21233;SDS011;10774;42.178;26.578;2023-09-19T02:24:36;8.32;;;4.70;;
21233;SDS011;10774;42.178;26.578;2023-09-19T02:27:03;8.65;;;4.65;;
21233;SDS011;10774;42.178;26.578;2023-09-19T02:29:31;7.53;;;4.80;;
21233;SDS011;10774;42.178;26.578;2023-09-19T02:31:59;9.20;;;5.15;;
21233;SDS011;10774;42.178;26.578;2023-09-19T02:34:25;8.65;;;4.55;;
21233;SDS011;10774;42.178;26.578;2023-09-19T02:36:51;7.75;;;4.47;;
21233;SDS011;10774;42.178;26.578;2023-09-19T02:39:18;7.28;;;4.65;;
21233;SDS011;10774;42.178;26.578;2023-09-19T02:41:44;5.15;;;4.47;;
21233;SDS011;10774;42.178;26.578;2023-09-19T02:44:09;6.75;;;4.35;;
21233;SDS011;10774;42.178;26.578;2023-09-19T02:46:35;5.28;;;4.25;;
21233;SDS011;10774;42.178;26.578;2023-09-19T02:49:03;6.30;;;4.35;;
21233;SDS011;10774;42.178;26.578;2023-09-19T02:51:32;6.80;;;4.40;;
21233;SDS011;10774;42.178;26.578;2023-09-19T02:54:01;19.45;;;5.80;;
21233;SDS011;10774;42.178;26.578;2023-09-19T02:56:27;9.13;;;4.40;;
21233;SDS011;10774;42.178;26.578;2023-09-19T02:58:53;9.15;;;4.47;;
21233;SDS011;10774;42.178;26.578;2023-09-19T03:01:20;7.60;;;4.88;;
21233;SDS011;10774;42.178;26.578;2023-09-19T03:03:45;7.60;;;4.63;;
21233;SDS011;10774;42.178;26.578;2023-09-19T03:06:11;5.97;;;5.07;;
21233;SDS011;10774;42.178;26.578;2023-09-19T03:08:38;5.68;;;4.53;;
21233;SDS011;10774;42.178;26.578;2023-09-19T03:11:07;7.68;;;4.65;;
21233;SDS011;10774;42.178;26.578;2023-09-19T03:13:36;5.05;;;4.28;;
21233;SDS011;10774;42.178;26.578;2023-09-19T03:16:05;5.72;;;4.10;;
21233;SDS011;10774;42.178;26.578;2023-09-19T03:18:31;7.65;;;4.72;;
21233;SDS011;10774;42.178;26.578;2023-09-19T03:20:59;6.15;;;4.88;;
21233;SDS011;10774;42.178;26.578;2023-09-19T03:23:25;5.50;;;4.22;;
21233;SDS011;10774;42.178;26.578;2023-09-19T03:25:51;7.10;;;4.43;;
21233;SDS011;10774;42.178;26.578;2023-09-19T03:28:17;8.70;;;5.22;;
21233;SDS011;10774;42.178;26.578;2023-09-19T03:30:43;7.47;;;4.55;;
21233;SDS011;10774;42.178;26.578;2023-09-19T03:33:09;6.97;;;4.93;;
21233;SDS011;10774;42.178;26.578;2023-09-19T03:35:37;5.38;;;4.43;;
21233;SDS011;10774;42.178;26.578;2023-09-19T03:38:03;6.45;;;4.78;;
21233;SDS011;10774;42.178;26.578;2023-09-19T03:40:29;7.63;;;4.72;;
21233;SDS011;10774;42.178;26.578;2023-09-19T03:42:55;9.57;;;4.53;;
21233;SDS011;10774;42.178;26.578;2023-09-19T03:45:20;6.18;;;4.70;;
21233;SDS011;10774;42.178;26.578;2023-09-19T03:47:46;7.30;;;4.53;;
21233;SDS011;10774;42.178;26.578;2023-09-19T03:50:14;9.23;;;4.97;;
21233;SDS011;10774;42.178;26.578;2023-09-19T03:52:42;7.25;;;4.55;;
21233;SDS011;10774;42.178;26.578;2023-09-19T03:55:08;5.32;;;4.75;;
21233;SDS011;10774;42.178;26.578;2023-09-19T03:57:34;8.52;;;4.88;;
21233;SDS011;10774;42.178;26.578;2023-09-19T04:00:00;6.20;;;4.85;;
21233;SDS011;10774;42.178;26.578;2023-09-19T04:02:26;7.80;;;5.20;;
21233;SDS011;10774;42.178;26.578;2023-09-19T04:04:57;14.05;;;6.15;;
21233;SDS011;10774;42.178;26.578;2023-09-19T04:07:23;8.93;;;6.25;;
21233;SDS011;10774;42.178;26.578;2023-09-19T04:09:50;10.27;;;6.05;;
21233;SDS011;10774;42.178;26.578;2023-09-19T04:12:18;10.07;;;6.28;;
21233;SDS011;10774;42.178;26.578;2023-09-19T04:14:44;7.93;;;5.45;;
21233;SDS011;10774;42.178;26.578;2023-09-19T04:17:09;7.22;;;5.25;;
21233;SDS011;10774;42.178;26.578;2023-09-19T04:19:36;9.68;;;5.07;;
21233;SDS011;10774;42.178;26.578;2023-09-19T04:22:01;6.25;;;4.97;;
21233;SDS011;10774;42.178;26.578;2023-09-19T04:24:28;6.78;;;4.90;;
21233;SDS011;10774;42.178;26.578;2023-09-19T04:26:53;7.47;;;5.63;;
21233;SDS011;10774;42.178;26.578;2023-09-19T04:29:18;9.68;;;5.28;;
21233;SDS011;10774;42.178;26.578;2023-09-19T04:31:45;5.20;;;4.43;;
21233;SDS011;10774;42.178;26.578;2023-09-19T04:34:11;11.27;;;5.20;;
21233;SDS011;10774;42.178;26.578;2023-09-19T04:36:41;12.13;;;5.47;;
21233;SDS011;10774;42.178;26.578;2023-09-19T04:39:06;9.30;;;6.70;;
21233;SDS011;10774;42.178;26.578;2023-09-19T04:41:32;17.75;;;6.18;;
21233;SDS011;10774;42.178;26.578;2023-09-19T04:43:59;11.18;;;5.03;;
21233;SDS011;10774;42.178;26.578;2023-09-19T04:46:24;11.50;;;5.80;;
21233;SDS011;10774;42.178;26.578;2023-09-19T04:48:50;8.20;;;5.85;;
21233;SDS011;10774;42.178;26.578;2023-09-19T04:51:15;8.35;;;5.80;;
21233;SDS011;10774;42.178;26.578;2023-09-19T04:53:41;6.47;;;5.55;;
21233;SDS011;10774;42.178;26.578;2023-09-19T04:56:07;7.22;;;5.72;;
21233;SDS011;10774;42.178;26.578;2023-09-19T04:58:33;8.57;;;5.45;;
21233;SDS011;10774;42.178;26.578;2023-09-19T05:00:59;8.57;;;5.05;;
21233;SDS011;10774;42.178;26.578;2023-09-19T05:03:24;8.23;;;5.47;;
21233;SDS011;10774;42.178;26.578;2023-09-19T05:05:50;7.22;;;5.65;;
21233;SDS011;10774;42.178;26.578;2023-09-19T05:08:15;6.63;;;4.90;;
21233;SDS011;10774;42.178;26.578;2023-09-19T05:10:41;9.23;;;5.90;;
21233;SDS011;10774;42.178;26.578;2023-09-19T05:13:06;8.70;;;5.13;;
21233;SDS011;10774;42.178;26.578;2023-09-19T05:15:34;10.65;;;6.05;;
21233;SDS011;10774;42.178;26.578;2023-09-19T05:18:00;9.57;;;5.90;;
21233;SDS011;10774;42.178;26.578;2023-09-19T05:20:26;10.57;;;6.10;;
21233;SDS011;10774;42.178;26.578;2023-09-19T05:22:59;22.70;;;8.02;;
21233;SDS011;10774;42.178;26.578;2023-09-19T05:25:27;15.38;;;8.00;;
21233;SDS011;10774;42.178;26.578;2023-09-19T05:27:55;13.48;;;6.78;;
21233;SDS011;10774;42.178;26.578;2023-09-19T05:30:22;14.23;;;6.50;;
21233;SDS011;10774;42.178;26.578;2023-09-19T05:32:48;16.05;;;6.90;;
21233;SDS011;10774;42.178;26.578;2023-09-19T05:35:14;18.75;;;9.40;;
21233;SDS011;10774;42.178;26.578;2023-09-19T05:37:39;16.02;;;7.07;;
21233;SDS011;10774;42.178;26.578;2023-09-19T05:40:04;19.52;;;7.65;;
21233;SDS011;10774;42.178;26.578;2023-09-19T05:42:34;22.83;;;12.70;;
21233;SDS011;10774;42.178;26.578;2023-09-19T05:45:00;17.52;;;9.23;;
21233;SDS011;10774;42.178;26.578;2023-09-19T05:47:25;27.10;;;15.10;;
21233;SDS011;10774;42.178;26.578;2023-09-19T05:49:50;32.67;;;17.83;;
21233;SDS011;10774;42.178;26.578;2023-09-19T05:52:17;44.78;;;24.00;;
21233;SDS011;10774;42.178;26.578;2023-09-19T05:54:43;52.75;;;27.13;;
21233;SDS011;10774;42.178;26.578;2023-09-19T05:57:08;29.58;;;14.30;;
21233;SDS011;10774;42.178;26.578;2023-09-19T05:59:35;22.73;;;11.48;;
21233;SDS011;10774;42.178;26.578;2023-09-19T06:02:01;29.20;;;15.18;;
21233;SDS011;10774;42.178;26.578;2023-09-19T06:04:26;22.45;;;12.93;;
21233;SDS011;10774;42.178;26.578;2023-09-19T06:06:52;23.65;;;10.38;;
21233;SDS011;10774;42.178;26.578;2023-09-19T06:09:17;18.63;;;8.80;;
21233;SDS011;10774;42.178;26.578;2023-09-19T06:11:44;17.67;;;8.95;;
21233;SDS011;10774;42.178;26.578;2023-09-19T06:14:09;14.98;;;8.90;;
21233;SDS011;10774;42.178;26.578;2023-09-19T06:16:35;14.60;;;9.45;;
21233;SDS011;10774;42.178;26.578;2023-09-19T06:19:01;16.08;;;9.15;;
21233;SDS011;10774;42.178;26.578;2023-09-19T06:21:27;16.02;;;9.27;;
21233;SDS011;10774;42.178;26.578;2023-09-19T06:23:53;17.58;;;8.35;;
21233;SDS011;10774;42.178;26.578;2023-09-19T06:26:19;17.55;;;7.93;;
21233;SDS011;10774;42.178;26.578;2023-09-19T06:28:44;29.10;;;13.38;;
21233;SDS011;10774;42.178;26.578;2023-09-19T06:31:10;25.52;;;14.18;;
21233;SDS011;10774;42.178;26.578;2023-09-19T06:33:36;31.15;;;24.52;;
21233;SDS011;10774;42.178;26.578;2023-09-19T06:36:05;38.05;;;24.35;;
21233;SDS011;10774;42.178;26.578;2023-09-19T06:38:32;23.63;;;16.48;;
21233;SDS011;10774;42.178;26.578;2023-09-19T06:41:01;21.83;;;16.65;;
21233;SDS011;10774;42.178;26.578;2023-09-19T06:43:30;19.92;;;17.17;;
21233;SDS011;10774;42.178;26.578;2023-09-19T06:45:56;15.15;;;10.65;;
21233;SDS011;10774;42.178;26.578;2023-09-19T06:48:22;18.38;;;10.70;;
21233;SDS011;10774;42.178;26.578;2023-09-19T06:50:50;11.90;;;8.35;;
21233;SDS011;10774;42.178;26.578;2023-09-19T06:53:15;8.20;;;5.38;;
21233;SDS011;10774;42.178;26.578;2023-09-19T06:55:41;6.75;;;5.13;;
21233;SDS011;10774;42.178;26.578;2023-09-19T06:58:08;7.53;;;5.90;;
21233;SDS011;10774;42.178;26.578;2023-09-19T07:00:35;7.75;;;6.15;;
21233;SDS011;10774;42.178;26.578;2023-09-19T07:05:32;6.65;;;5.03;;
21233;SDS011;10774;42.178;26.578;2023-09-19T07:07:59;8.93;;;5.25;;
21233;SDS011;10774;42.178;26.578;2023-09-19T07:10:25;11.38;;;6.15;;
21233;SDS011;10774;42.178;26.578;2023-09-19T07:12:55;8.48;;;5.20;;
21233;SDS011;10774;42.178;26.578;2023-09-19T07:15:22;10.18;;;5.60;;
21233;SDS011;10774;42.178;26.578;2023-09-19T07:17:50;10.98;;;5.60;;
21233;SDS011;10774;42.178;26.578;2023-09-19T07:20:15;7.20;;;4.78;;
21233;SDS011;10774;42.178;26.578;2023-09-19T07:22:41;9.20;;;4.93;;
21233;SDS011;10774;42.178;26.578;2023-09-19T07:25:07;8.05;;;5.18;;
21233;SDS011;10774;42.178;26.578;2023-09-19T07:27:33;9.27;;;4.90;;
21233;SDS011;10774;42.178;26.578;2023-09-19T07:29:58;7.57;;;5.45;;
21233;SDS011;10774;42.178;26.578;2023-09-19T07:32:24;5.97;;;4.22;;
21233;SDS011;10774;42.178;26.578;2023-09-19T07:34:49;10.20;;;4.82;;
21233;SDS011;10774;42.178;26.578;2023-09-19T07:37:15;5.90;;;4.68;;
21233;SDS011;10774;42.178;26.578;2023-09-19T07:39:41;11.23;;;4.70;;
21233;SDS011;10774;42.178;26.578;2023-09-19T07:42:07;6.38;;;4.40;;
21233;SDS011;10774;42.178;26.578;2023-09-19T07:44:32;8.82;;;4.35;;
21233;SDS011;10774;42.178;26.578;2023-09-19T07:46:59;9.05;;;4.70;;
21233;SDS011;10774;42.178;26.578;2023-09-19T07:49:26;9.45;;;4.80;;
21233;SDS011;10774;42.178;26.578;2023-09-19T07:51:51;13.30;;;4.57;;
21233;SDS011;10774;42.178;26.578;2023-09-19T07:54:19;9.20;;;4.55;;
21233;SDS011;10774;42.178;26.578;2023-09-19T07:56:45;7.20;;;5.07;;
21233;SDS011;10774;42.178;26.578;2023-09-19T07:59:11;8.85;;;4.72;;
21233;SDS011;10774;42.178;26.578;2023-09-19T08:01:37;18.60;;;6.20;;
21233;SDS011;10774;42.178;26.578;2023-09-19T08:04:04;12.52;;;4.75;;
21233;SDS011;10774;42.178;26.578;2023-09-19T08:06:30;6.07;;;4.07;;
21233;SDS011;10774;42.178;26.578;2023-09-19T08:08:56;6.00;;;3.40;;
21233;SDS011;10774;42.178;26.578;2023-09-19T08:11:22;10.43;;;3.88;;
21233;SDS011;10774;42.178;26.578;2023-09-19T08:13:49;6.55;;;3.75;;
21233;SDS011;10774;42.178;26.578;2023-09-19T08:16:15;11.63;;;4.32;;
21233;SDS011;10774;42.178;26.578;2023-09-19T08:18:42;11.30;;;3.88;;
21233;SDS011;10774;42.178;26.578;2023-09-19T08:21:11;5.22;;;3.17;;
21233;SDS011;10774;42.178;26.578;2023-09-19T08:23:37;6.47;;;3.65;;
21233;SDS011;10774;42.178;26.578;2023-09-19T08:26:03;4.70;;;3.00;;
21233;SDS011;10774;42.178;26.578;2023-09-19T08:28:32;5.03;;;3.22;;
21233;SDS011;10774;42.178;26.578;2023-09-19T08:31:01;4.68;;;3.88;;
21233;SDS011;10774;42.178;26.578;2023-09-19T08:33:33;7.18;;;3.85;;
21233;SDS011;10774;42.178;26.578;2023-09-19T08:36:00;4.65;;;3.15;;
21233;SDS011;10774;42.178;26.578;2023-09-19T08:38:29;8.52;;;3.50;;
21233;SDS011;10774;42.178;26.578;2023-09-19T08:40:58;7.85;;;3.83;;
21233;SDS011;10774;42.178;26.578;2023-09-19T11:52:24;5.25;;;2.55;;
21233;SDS011;10774;42.178;26.578;2023-09-19T11:54:56;3.45;;;1.90;;
21233;SDS011;10774;42.178;26.578;2023-09-19T11:57:22;4.75;;;2.08;;
21233;SDS011;10774;42.178;26.578;2023-09-19T11:59:49;6.85;;;2.22;;
21233;SDS011;10774;42.178;26.578;2023-09-19T12:02:27;3.25;;;2.17;;
21233;SDS011;10774;42.178;26.578;2023-09-19T12:05:05;2.30;;;2.10;;
21233;SDS011;10774;42.178;26.578;2023-09-19T12:07:31;3.33;;;2.00;;
21233;SDS011;10774;42.178;26.578;2023-09-19T12:10:08;3.22;;;1.90;;
21233;SDS011;10774;42.178;26.578;2023-09-19T12:12:36;3.80;;;2.15;;
21233;SDS011;10774;42.178;26.578;2023-09-19T12:15:02;4.70;;;1.80;;
21233;SDS011;10774;42.178;26.578;2023-09-19T12:17:39;4.72;;;2.42;;
21233;SDS011;10774;42.178;26.578;2023-09-19T12:20:08;4.22;;;1.88;;
21233;SDS011;10774;42.178;26.578;2023-09-19T12:22:43;4.07;;;2.17;;
21233;SDS011;10774;42.178;26.578;2023-09-19T12:25:11;4.15;;;2.00;;
21233;SDS011;10774;42.178;26.578;2023-09-19T12:27:47;2.83;;;1.83;;
21233;SDS011;10774;42.178;26.578;2023-09-19T12:30:21;3.20;;;2.08;;
21233;SDS011;10774;42.178;26.578;2023-09-19T12:32:53;4.78;;;2.53;;
21233;SDS011;10774;42.178;26.578;2023-09-19T12:35:28;4.53;;;2.22;;
21233;SDS011;10774;42.178;26.578;2023-09-19T12:37:59;3.20;;;1.90;;
21233;SDS011;10774;42.178;26.578;2023-09-19T12:40:26;3.55;;;1.80;;
21233;SDS011;10774;42.178;26.578;2023-09-19T12:42:54;3.10;;;1.67;;
21233;SDS011;10774;42.178;26.578;2023-09-19T12:45:23;4.30;;;2.10;;
21233;SDS011;10774;42.178;26.578;2023-09-19T12:51:09;2.80;;;1.90;;
21233;SDS011;10774;42.178;26.578;2023-09-19T12:56:14;3.85;;;1.90;;
21233;SDS011;10774;42.178;26.578;2023-09-19T13:01:26;3.20;;;1.80;;
21233;SDS011;10774;42.178;26.578;2023-09-19T13:04:10;3.45;;;1.90;;
21233;SDS011;10774;42.178;26.578;2023-09-19T13:06:43;10.00;;;2.47;;
21233;SDS011;10774;42.178;26.578;2023-09-19T13:09:10;4.28;;;2.22;;
21233;SDS011;10774;42.178;26.578;2023-09-19T13:11:36;3.72;;;2.10;;
21233;SDS011;10774;42.178;26.578;2023-09-19T13:14:15;9.45;;;2.60;;
21233;SDS011;10774;42.178;26.578;2023-09-19T13:19:44;4.32;;;2.10;;
21233;SDS011;10774;42.178;26.578;2023-09-19T13:25:18;3.05;;;2.20;;
21233;SDS011;10774;42.178;26.578;2023-09-19T13:27:44;2.95;;;1.80;;
21233;SDS011;10774;42.178;26.578;2023-09-19T13:30:11;4.40;;;1.92;;
21233;SDS011;10774;42.178;26.578;2023-09-19T13:32:37;4.35;;;1.95;;
21233;SDS011;10774;42.178;26.578;2023-09-19T13:35:05;3.22;;;2.03;;
21233;SDS011;10774;42.178;26.578;2023-09-19T13:37:34;4.38;;;2.13;;
21233;SDS011;10774;42.178;26.578;2023-09-19T13:40:03;3.40;;;1.90;;
21233;SDS011;10774;42.178;26.578;2023-09-19T13:42:30;2.90;;;1.77;;
21233;SDS011;10774;42.178;26.578;2023-09-19T13:44:56;3.42;;;2.17;;
21233;SDS011;10774;42.178;26.578;2023-09-19T13:47:22;4.05;;;2.20;;
21233;SDS011;10774;42.178;26.578;2023-09-19T13:49:49;11.15;;;2.60;;
21233;SDS011;10774;42.178;26.578;2023-09-19T13:52:18;5.68;;;2.03;;
21233;SDS011;10774;42.178;26.578;2023-09-19T13:54:44;5.80;;;2.10;;
21233;SDS011;10774;42.178;26.578;2023-09-19T13:57:09;5.40;;;2.78;;
21233;SDS011;10774;42.178;26.578;2023-09-19T13:59:35;4.10;;;2.38;;
21233;SDS011;10774;42.178;26.578;2023-09-19T14:02:00;5.68;;;2.03;;
21233;SDS011;10774;42.178;26.578;2023-09-19T14:04:27;4.93;;;1.90;;
21233;SDS011;10774;42.178;26.578;2023-09-19T14:06:53;6.70;;;2.33;;
21233;SDS011;10774;42.178;26.578;2023-09-19T14:09:19;6.45;;;2.58;;
21233;SDS011;10774;42.178;26.578;2023-09-19T14:11:45;10.13;;;2.20;;
21233;SDS011;10774;42.178;26.578;2023-09-19T14:14:12;5.00;;;2.00;;
21233;SDS011;10774;42.178;26.578;2023-09-19T14:16:39;5.85;;;2.17;;
21233;SDS011;10774;42.178;26.578;2023-09-19T14:19:06;4.65;;;2.00;;
21233;SDS011;10774;42.178;26.578;2023-09-19T14:21:33;7.13;;;2.30;;
21233;SDS011;10774;42.178;26.578;2023-09-19T14:23:58;5.57;;;1.95;;
21233;SDS011;10774;42.178;26.578;2023-09-19T14:26:24;6.63;;;2.00;;
21233;SDS011;10774;42.178;26.578;2023-09-19T14:28:49;3.83;;;2.10;;
21233;SDS011;10774;42.178;26.578;2023-09-19T14:31:14;3.15;;;1.95;;
21233;SDS011;10774;42.178;26.578;2023-09-19T14:33:40;6.65;;;2.13;;
21233;SDS011;10774;42.178;26.578;2023-09-19T14:36:06;5.55;;;2.05;;
21233;SDS011;10774;42.178;26.578;2023-09-19T14:38:35;7.88;;;2.40;;
21233;SDS011;10774;42.178;26.578;2023-09-19T14:41:02;7.05;;;2.83;;
21233;SDS011;10774;42.178;26.578;2023-09-19T14:43:29;6.90;;;2.60;;
21233;SDS011;10774;42.178;26.578;2023-09-19T14:45:55;3.78;;;2.05;;
21233;SDS011;10774;42.178;26.578;2023-09-19T14:48:22;3.08;;;2.25;;
21233;SDS011;10774;42.178;26.578;2023-09-19T14:50:50;5.35;;;2.03;;
21233;SDS011;10774;42.178;26.578;2023-09-19T14:53:17;4.05;;;2.30;;
21233;SDS011;10774;42.178;26.578;2023-09-19T14:55:43;5.43;;;2.13;;
21233;SDS011;10774;42.178;26.578;2023-09-19T14:58:10;4.03;;;2.30;;
21233;SDS011;10774;42.178;26.578;2023-09-19T15:00:36;4.32;;;2.17;;
21233;SDS011;10774;42.178;26.578;2023-09-19T15:03:01;3.20;;;2.58;;
21233;SDS011;10774;42.178;26.578;2023-09-19T15:05:27;7.40;;;4.90;;
21233;SDS011;10774;42.178;26.578;2023-09-19T15:07:55;4.68;;;2.45;;
21233;SDS011;10774;42.178;26.578;2023-09-19T15:10:21;4.47;;;1.92;;
21233;SDS011;10774;42.178;26.578;2023-09-19T15:12:47;7.95;;;6.28;;
21233;SDS011;10774;42.178;26.578;2023-09-19T15:15:13;4.55;;;2.30;;
21233;SDS011;10774;42.178;26.578;2023-09-19T15:17:39;10.60;;;5.53;;
21233;SDS011;10774;42.178;26.578;2023-09-19T15:20:05;4.82;;;3.13;;
21233;SDS011;10774;42.178;26.578;2023-09-19T15:22:34;4.97;;;2.40;;
21233;SDS011;10774;42.178;26.578;2023-09-19T15:25:03;4.50;;;3.25;;
21233;SDS011;10774;42.178;26.578;2023-09-19T15:27:29;6.03;;;3.08;;
21233;SDS011;10774;42.178;26.578;2023-09-19T15:29:56;5.28;;;2.50;;
21233;SDS011;10774;42.178;26.578;2023-09-19T15:32:23;9.00;;;3.95;;
21233;SDS011;10774;42.178;26.578;2023-09-19T15:34:49;7.93;;;3.92;;
21233;SDS011;10774;42.178;26.578;2023-09-19T15:37:14;9.13;;;3.92;;
21233;SDS011;10774;42.178;26.578;2023-09-19T15:39:40;9.73;;;6.72;;
21233;SDS011;10774;42.178;26.578;2023-09-19T15:42:07;8.27;;;4.28;;
21233;SDS011;10774;42.178;26.578;2023-09-19T15:44:32;6.63;;;4.97;;
21233;SDS011;10774;42.178;26.578;2023-09-19T15:46:58;17.35;;;12.65;;
21233;SDS011;10774;42.178;26.578;2023-09-19T15:49:24;7.82;;;5.05;;
21233;SDS011;10774;42.178;26.578;2023-09-19T15:51:49;9.07;;;4.30;;
21233;SDS011;10774;42.178;26.578;2023-09-19T15:54:15;10.63;;;5.43;;
21233;SDS011;10774;42.178;26.578;2023-09-19T15:56:42;8.55;;;3.75;;
21233;SDS011;10774;42.178;26.578;2023-09-19T15:59:09;10.45;;;3.70;;
21233;SDS011;10774;42.178;26.578;2023-09-19T16:01:35;9.07;;;4.07;;
21233;SDS011;10774;42.178;26.578;2023-09-19T16:04:02;8.68;;;3.60;;
21233;SDS011;10774;42.178;26.578;2023-09-19T16:06:28;6.78;;;3.60;;
21233;SDS011;10774;42.178;26.578;2023-09-19T16:08:56;7.68;;;3.15;;
21233;SDS011;10774;42.178;26.578;2023-09-19T16:11:25;5.10;;;3.42;;
21233;SDS011;10774;42.178;26.578;2023-09-19T16:13:52;5.90;;;3.40;;
21233;SDS011;10774;42.178;26.578;2023-09-19T16:16:18;5.85;;;3.67;;
21233;SDS011;10774;42.178;26.578;2023-09-19T16:18:48;10.95;;;6.93;;
21233;SDS011;10774;42.178;26.578;2023-09-19T16:21:21;6.88;;;5.03;;
21233;SDS011;10774;42.178;26.578;2023-09-19T16:23:47;10.48;;;6.72;;
21233;SDS011;10774;42.178;26.578;2023-09-19T16:26:13;9.15;;;5.28;;
21233;SDS011;10774;42.178;26.578;2023-09-19T16:28:39;8.40;;;4.07;;
21233;SDS011;10774;42.178;26.578;2023-09-19T16:31:06;11.40;;;5.72;;
21233;SDS011;10774;42.178;26.578;2023-09-19T16:33:33;8.77;;;4.82;;
21233;SDS011;10774;42.178;26.578;2023-09-19T16:36:01;7.47;;;3.33;;
21233;SDS011;10774;42.178;26.578;2023-09-19T16:38:28;6.50;;;3.60;;
21233;SDS011;10774;42.178;26.578;2023-09-19T16:40:54;5.82;;;4.00;;
21233;SDS011;10774;42.178;26.578;2023-09-19T16:43:21;8.68;;;4.22;;
21233;SDS011;10774;42.178;26.578;2023-09-19T16:45:52;10.20;;;4.43;;
21233;SDS011;10774;42.178;26.578;2023-09-19T16:48:27;6.60;;;3.17;;
21233;SDS011;10774;42.178;26.578;2023-09-19T16:51:03;11.50;;;4.07;;
21233;SDS011;10774;42.178;26.578;2023-09-19T16:53:32;5.10;;;3.40;;
21233;SDS011;10774;42.178;26.578;2023-09-19T16:58:34;6.93;;;3.75;;
21233;SDS011;10774;42.178;26.578;2023-09-19T17:01:00;8.80;;;3.80;;
21233;SDS011;10774;42.178;26.578;2023-09-19T17:03:25;5.88;;;3.03;;
21233;SDS011;10774;42.178;26.578;2023-09-19T17:05:51;5.25;;;3.38;;
21233;SDS011;10774;42.178;26.578;2023-09-19T17:08:21;5.22;;;3.28;;
21233;SDS011;10774;42.178;26.578;2023-09-19T17:10:47;6.72;;;3.08;;
21233;SDS011;10774;42.178;26.578;2023-09-19T17:13:12;4.25;;;3.10;;
21233;SDS011;10774;42.178;26.578;2023-09-19T17:15:37;5.45;;;3.45;;
21233;SDS011;10774;42.178;26.578;2023-09-19T17:18:04;5.68;;;3.22;;
21233;SDS011;10774;42.178;26.578;2023-09-19T17:20:30;8.68;;;3.15;;
21233;SDS011;10774;42.178;26.578;2023-09-19T17:22:56;6.03;;;2.83;;
21233;SDS011;10774;42.178;26.578;2023-09-19T17:25:23;7.82;;;3.15;;
21233;SDS011;10774;42.178;26.578;2023-09-19T17:27:49;7.82;;;3.75;;
21233;SDS011;10774;42.178;26.578;2023-09-19T17:30:15;4.00;;;2.80;;
21233;SDS011;10774;42.178;26.578;2023-09-19T17:32:42;7.38;;;2.85;;
21233;SDS011;10774;42.178;26.578;2023-09-19T17:35:08;4.15;;;2.78;;
21233;SDS011;10774;42.178;26.578;2023-09-19T17:37:34;7.13;;;3.00;;
21233;SDS011;10774;42.178;26.578;2023-09-19T17:40:01;5.65;;;3.05;;
21233;SDS011;10774;42.178;26.578;2023-09-19T17:42:32;4.72;;;3.35;;
21233;SDS011;10774;42.178;26.578;2023-09-19T17:44:59;4.68;;;3.03;;
21233;SDS011;10774;42.178;26.578;2023-09-19T17:47:24;4.97;;;2.60;;
21233;SDS011;10774;42.178;26.578;2023-09-19T17:49:50;4.70;;;2.83;;
21233;SDS011;10774;42.178;26.578;2023-09-19T17:52:15;6.10;;;2.97;;
21233;SDS011;10774;42.178;26.578;2023-09-19T17:54:43;7.97;;;3.38;;
21233;SDS011;10774;42.178;26.578;2023-09-19T17:57:09;4.97;;;3.15;;
21233;SDS011;10774;42.178;26.578;2023-09-19T17:59:35;7.03;;;3.35;;
21233;SDS011;10774;42.178;26.578;2023-09-19T18:02:01;7.30;;;3.13;;
21233;SDS011;10774;42.178;26.578;2023-09-19T18:04:26;4.97;;;3.00;;
21233;SDS011;10774;42.178;26.578;2023-09-19T18:06:53;5.97;;;3.05;;
21233;SDS011;10774;42.178;26.578;2023-09-19T18:09:18;5.43;;;3.45;;
21233;SDS011;10774;42.178;26.578;2023-09-19T18:11:46;4.65;;;2.90;;
21233;SDS011;10774;42.178;26.578;2023-09-19T18:14:12;6.05;;;3.33;;
21233;SDS011;10774;42.178;26.578;2023-09-19T18:16:39;6.57;;;2.97;;
21233;SDS011;10774;42.178;26.578;2023-09-19T18:19:05;5.80;;;3.33;;
21233;SDS011;10774;42.178;26.578;2023-09-19T18:21:32;3.92;;;3.08;;
21233;SDS011;10774;42.178;26.578;2023-09-19T18:23:58;7.70;;;3.20;;